sensor_id;sensor_type;location;lat;lon;timestamp;P1;durP1;ratioP1;P2;durP2;ratioP2
69738;SDS011;66905;51.012;4.724;2023-02-28T00:01:23;12.97;;;7.40;;
69738;SDS011;66905;51.012;4.724;2023-02-28T00:03:49;11.23;;;7.15;;
69738;SDS011;66905;51.012;4.724;2023-02-28T00:06:15;11.85;;;6.95;;
69738;SDS011;66905;51.012;4.724;2023-02-28T00:08:41;15.23;;;6.43;;
69738;SDS011;66905;51.012;4.724;2023-02-28T00:11:10;10.02;;;6.03;;
69738;SDS011;66905;51.012;4.724;2023-02-28T00:13:39;10.63;;;6.20;;
69738;SDS011;66905;51.012;4.724;2023-02-28T00:16:08;10.75;;;6.93;;
69738;SDS011;66905;51.012;4.724;2023-02-28T00:18:36;8.82;;;5.95;;
69738;SDS011;66905;51.012;4.724;2023-02-28T00:21:05;11.57;;;7.10;;
69738;SDS011;66905;51.012;4.724;2023-02-28T00:23:31;11.13;;;7.00;;
69738;SDS011;66905;51.012;4.724;2023-02-28T00:25:59;12.35;;;6.55;;
69738;SDS011;66905;51.012;4.724;2023-02-28T00:28:25;12.05;;;6.35;;
69738;SDS011;66905;51.012;4.724;2023-02-28T00:30:53;9.43;;;6.22;;
69738;SDS011;66905;51.012;4.724;2023-02-28T00:33:22;11.02;;;5.78;;
69738;SDS011;66905;51.012;4.724;2023-02-28T00:35:47;9.90;;;7.20;;
69738;SDS011;66905;51.012;4.724;2023-02-28T00:38:15;14.20;;;6.32;;
69738;SDS011;66905;51.012;4.724;2023-02-28T00:40:41;10.30;;;7.05;;
69738;SDS011;66905;51.012;4.724;2023-02-28T00:43:10;9.45;;;5.97;;
69738;SDS011;66905;51.012;4.724;2023-02-28T00:45:35;10.30;;;5.72;;
69738;SDS011;66905;51.012;4.724;2023-02-28T00:48:01;12.50;;;6.13;;
69738;SDS011;66905;51.012;4.724;2023-02-28T00:50:27;10.68;;;5.97;;
69738;SDS011;66905;51.012;4.724;2023-02-28T00:52:55;10.10;;;6.22;;
69738;SDS011;66905;51.012;4.724;2023-02-28T00:55:23;11.20;;;6.20;;
69738;SDS011;66905;51.012;4.724;2023-02-28T00:57:49;11.73;;;6.63;;
69738;SDS011;66905;51.012;4.724;2023-02-28T01:00:14;17.20;;;6.88;;
69738;SDS011;66905;51.012;4.724;2023-02-28T01:02:42;11.38;;;6.93;;
69738;SDS011;66905;51.012;4.724;2023-02-28T01:05:07;11.68;;;6.40;;
69738;SDS011;66905;51.012;4.724;2023-02-28T01:07:36;13.13;;;6.95;;
69738;SDS011;66905;51.012;4.724;2023-02-28T01:10:01;11.77;;;6.68;;
69738;SDS011;66905;51.012;4.724;2023-02-28T01:12:29;9.70;;;6.28;;
69738;SDS011;66905;51.012;4.724;2023-02-28T01:14:55;13.73;;;7.43;;
69738;SDS011;66905;51.012;4.724;2023-02-28T01:17:21;9.48;;;6.72;;
69738;SDS011;66905;51.012;4.724;2023-02-28T01:19:49;14.02;;;7.65;;
69738;SDS011;66905;51.012;4.724;2023-02-28T01:22:14;24.35;;;8.77;;
69738;SDS011;66905;51.012;4.724;2023-02-28T01:24:40;16.73;;;7.70;;
69738;SDS011;66905;51.012;4.724;2023-02-28T01:27:06;14.82;;;7.53;;
69738;SDS011;66905;51.012;4.724;2023-02-28T01:29:34;11.40;;;7.93;;
69738;SDS011;66905;51.012;4.724;2023-02-28T01:31:59;10.80;;;7.95;;
69738;SDS011;66905;51.012;4.724;2023-02-28T01:34:25;14.55;;;8.55;;
69738;SDS011;66905;51.012;4.724;2023-02-28T01:36:53;14.75;;;8.93;;
69738;SDS011;66905;51.012;4.724;2023-02-28T01:39:19;16.90;;;9.40;;
69738;SDS011;66905;51.012;4.724;2023-02-28T01:41:44;18.25;;;7.40;;
69738;SDS011;66905;51.012;4.724;2023-02-28T01:47:13;14.13;;;8.45;;
69738;SDS011;66905;51.012;4.724;2023-02-28T01:49:42;17.58;;;8.35;;
69738;SDS011;66905;51.012;4.724;2023-02-28T01:52:08;14.27;;;7.78;;
69738;SDS011;66905;51.012;4.724;2023-02-28T01:54:39;15.55;;;7.95;;
69738;SDS011;66905;51.012;4.724;2023-02-28T01:57:09;14.35;;;8.20;;
69738;SDS011;66905;51.012;4.724;2023-02-28T01:59:57;14.80;;;8.88;;
69738;SDS011;66905;51.012;4.724;2023-02-28T02:02:29;15.48;;;9.02;;
69738;SDS011;66905;51.012;4.724;2023-02-28T02:05:07;17.88;;;7.95;;
69738;SDS011;66905;51.012;4.724;2023-02-28T02:07:37;15.88;;;7.95;;
69738;SDS011;66905;51.012;4.724;2023-02-28T02:15:34;16.70;;;7.68;;
69738;SDS011;66905;51.012;4.724;2023-02-28T02:18:20;10.95;;;7.50;;
69738;SDS011;66905;51.012;4.724;2023-02-28T02:31:51;14.18;;;8.43;;
69738;SDS011;66905;51.012;4.724;2023-02-28T02:42:45;13.65;;;8.45;;
69738;SDS011;66905;51.012;4.724;2023-02-28T02:45:52;12.80;;;7.93;;
69738;SDS011;66905;51.012;4.724;2023-02-28T02:48:21;14.65;;;7.97;;
69738;SDS011;66905;51.012;4.724;2023-02-28T02:50:53;17.23;;;9.05;;
69738;SDS011;66905;51.012;4.724;2023-02-28T02:53:25;11.68;;;7.68;;
69738;SDS011;66905;51.012;4.724;2023-02-28T02:55:57;15.68;;;9.02;;
69738;SDS011;66905;51.012;4.724;2023-02-28T02:58:28;19.15;;;8.85;;
69738;SDS011;66905;51.012;4.724;2023-02-28T03:00:57;15.07;;;10.05;;
69738;SDS011;66905;51.012;4.724;2023-02-28T03:03:29;16.05;;;8.10;;
69738;SDS011;66905;51.012;4.724;2023-02-28T03:05:58;17.20;;;8.63;;
69738;SDS011;66905;51.012;4.724;2023-02-28T03:08:25;18.77;;;9.40;;
69738;SDS011;66905;51.012;4.724;2023-02-28T03:10:55;17.30;;;10.05;;
69738;SDS011;66905;51.012;4.724;2023-02-28T03:33:21;25.13;;;10.32;;
69738;SDS011;66905;51.012;4.724;2023-02-28T03:35:52;19.55;;;10.07;;
69738;SDS011;66905;51.012;4.724;2023-02-28T03:41:01;12.55;;;9.20;;
69738;SDS011;66905;51.012;4.724;2023-02-28T03:43:34;15.88;;;9.85;;
69738;SDS011;66905;51.012;4.724;2023-02-28T03:46:07;19.88;;;10.20;;
69738;SDS011;66905;51.012;4.724;2023-02-28T03:48:39;17.40;;;9.35;;
69738;SDS011;66905;51.012;4.724;2023-02-28T03:51:14;17.80;;;9.50;;
69738;SDS011;66905;51.012;4.724;2023-02-28T03:53:44;16.45;;;8.60;;
69738;SDS011;66905;51.012;4.724;2023-02-28T03:56:20;15.60;;;9.45;;
69738;SDS011;66905;51.012;4.724;2023-02-28T03:59:14;19.20;;;9.75;;
69738;SDS011;66905;51.012;4.724;2023-02-28T04:01:44;16.77;;;9.48;;
69738;SDS011;66905;51.012;4.724;2023-02-28T04:04:12;17.92;;;9.82;;
69738;SDS011;66905;51.012;4.724;2023-02-28T04:06:39;20.33;;;10.13;;
69738;SDS011;66905;51.012;4.724;2023-02-28T04:09:06;19.17;;;10.23;;
69738;SDS011;66905;51.012;4.724;2023-02-28T04:14:03;15.90;;;9.73;;
69738;SDS011;66905;51.012;4.724;2023-02-28T04:16:30;19.40;;;9.60;;
69738;SDS011;66905;51.012;4.724;2023-02-28T04:18:58;18.75;;;10.27;;
69738;SDS011;66905;51.012;4.724;2023-02-28T04:21:28;15.07;;;8.98;;
69738;SDS011;66905;51.012;4.724;2023-02-28T04:23:57;20.95;;;10.55;;
69738;SDS011;66905;51.012;4.724;2023-02-28T04:26:28;16.27;;;9.57;;
69738;SDS011;66905;51.012;4.724;2023-02-28T04:28:59;15.25;;;9.82;;
69738;SDS011;66905;51.012;4.724;2023-02-28T04:31:26;16.08;;;9.82;;
69738;SDS011;66905;51.012;4.724;2023-02-28T04:33:51;19.08;;;10.38;;
69738;SDS011;66905;51.012;4.724;2023-02-28T04:36:18;14.90;;;9.93;;
69738;SDS011;66905;51.012;4.724;2023-02-28T04:38:44;13.98;;;8.98;;
69738;SDS011;66905;51.012;4.724;2023-02-28T04:41:10;17.23;;;10.02;;
69738;SDS011;66905;51.012;4.724;2023-02-28T04:43:41;16.00;;;9.95;;
69738;SDS011;66905;51.012;4.724;2023-02-28T04:46:07;23.95;;;10.93;;
69738;SDS011;66905;51.012;4.724;2023-02-28T04:48:34;14.35;;;9.73;;
69738;SDS011;66905;51.012;4.724;2023-02-28T04:51:02;16.08;;;10.23;;
69738;SDS011;66905;51.012;4.724;2023-02-28T04:53:29;19.52;;;10.30;;
69738;SDS011;66905;51.012;4.724;2023-02-28T04:55:58;18.88;;;10.60;;
69738;SDS011;66905;51.012;4.724;2023-02-28T04:58:26;17.63;;;9.63;;
69738;SDS011;66905;51.012;4.724;2023-02-28T05:00:56;17.08;;;10.60;;
69738;SDS011;66905;51.012;4.724;2023-02-28T05:03:39;16.92;;;11.13;;
69738;SDS011;66905;51.012;4.724;2023-02-28T05:06:08;19.58;;;10.85;;
69738;SDS011;66905;51.012;4.724;2023-02-28T05:08:34;22.73;;;11.60;;
69738;SDS011;66905;51.012;4.724;2023-02-28T05:11:03;21.00;;;11.57;;
69738;SDS011;66905;51.012;4.724;2023-02-28T05:13:29;17.13;;;10.82;;
69738;SDS011;66905;51.012;4.724;2023-02-28T05:15:55;17.17;;;10.40;;
69738;SDS011;66905;51.012;4.724;2023-02-28T05:18:21;18.83;;;10.30;;
69738;SDS011;66905;51.012;4.724;2023-02-28T05:20:47;19.73;;;9.85;;
69738;SDS011;66905;51.012;4.724;2023-02-28T05:23:15;14.55;;;10.00;;
69738;SDS011;66905;51.012;4.724;2023-02-28T05:25:44;22.80;;;10.38;;
69738;SDS011;66905;51.012;4.724;2023-02-28T05:28:10;14.95;;;9.27;;
69738;SDS011;66905;51.012;4.724;2023-02-28T05:30:36;15.43;;;9.50;;
69738;SDS011;66905;51.012;4.724;2023-02-28T05:33:02;18.80;;;9.77;;
69738;SDS011;66905;51.012;4.724;2023-02-28T05:35:27;15.85;;;9.75;;
69738;SDS011;66905;51.012;4.724;2023-02-28T05:37:55;15.88;;;9.13;;
69738;SDS011;66905;51.012;4.724;2023-02-28T05:40:21;16.30;;;9.40;;
69738;SDS011;66905;51.012;4.724;2023-02-28T05:42:49;18.35;;;8.77;;
69738;SDS011;66905;51.012;4.724;2023-02-28T05:45:15;13.13;;;8.77;;
69738;SDS011;66905;51.012;4.724;2023-02-28T05:47:42;16.00;;;9.05;;
69738;SDS011;66905;51.012;4.724;2023-02-28T05:50:10;15.80;;;10.02;;
69738;SDS011;66905;51.012;4.724;2023-02-28T05:52:36;16.02;;;8.60;;
69738;SDS011;66905;51.012;4.724;2023-02-28T05:55:02;19.70;;;10.48;;
69738;SDS011;66905;51.012;4.724;2023-02-28T05:57:29;14.23;;;9.52;;
69738;SDS011;66905;51.012;4.724;2023-02-28T05:59:55;17.40;;;9.18;;
69738;SDS011;66905;51.012;4.724;2023-02-28T06:02:20;15.88;;;9.15;;
69738;SDS011;66905;51.012;4.724;2023-02-28T06:04:46;16.60;;;9.43;;
69738;SDS011;66905;51.012;4.724;2023-02-28T06:07:16;13.80;;;8.50;;
69738;SDS011;66905;51.012;4.724;2023-02-28T06:09:45;16.42;;;8.57;;
69738;SDS011;66905;51.012;4.724;2023-02-28T06:12:10;14.57;;;8.65;;
69738;SDS011;66905;51.012;4.724;2023-02-28T06:14:36;16.33;;;9.93;;
69738;SDS011;66905;51.012;4.724;2023-02-28T06:17:04;15.60;;;8.70;;
69738;SDS011;66905;51.012;4.724;2023-02-28T06:19:29;21.55;;;9.43;;
69738;SDS011;66905;51.012;4.724;2023-02-28T06:21:55;19.50;;;10.00;;
69738;SDS011;66905;51.012;4.724;2023-02-28T06:24:22;16.02;;;9.98;;
69738;SDS011;66905;51.012;4.724;2023-02-28T06:26:49;11.90;;;8.00;;
69738;SDS011;66905;51.012;4.724;2023-02-28T06:29:15;13.70;;;7.70;;
69738;SDS011;66905;51.012;4.724;2023-02-28T06:31:43;15.68;;;9.70;;
69738;SDS011;66905;51.012;4.724;2023-02-28T06:34:10;16.25;;;9.50;;
69738;SDS011;66905;51.012;4.724;2023-02-28T06:36:37;16.48;;;10.02;;
69738;SDS011;66905;51.012;4.724;2023-02-28T06:39:08;18.88;;;9.10;;
69738;SDS011;66905;51.012;4.724;2023-02-28T06:41:34;15.48;;;9.75;;
69738;SDS011;66905;51.012;4.724;2023-02-28T06:44:05;17.83;;;10.98;;
69738;SDS011;66905;51.012;4.724;2023-02-28T06:46:36;18.73;;;9.95;;
69738;SDS011;66905;51.012;4.724;2023-02-28T06:49:03;17.83;;;9.68;;
69738;SDS011;66905;51.012;4.724;2023-02-28T06:51:30;18.55;;;11.05;;
69738;SDS011;66905;51.012;4.724;2023-02-28T06:53:55;12.05;;;8.27;;
69738;SDS011;66905;51.012;4.724;2023-02-28T06:56:21;13.45;;;8.70;;
69738;SDS011;66905;51.012;4.724;2023-02-28T06:58:47;13.45;;;8.10;;
69738;SDS011;66905;51.012;4.724;2023-02-28T07:01:14;15.40;;;8.45;;
69738;SDS011;66905;51.012;4.724;2023-02-28T07:03:42;16.40;;;8.50;;
69738;SDS011;66905;51.012;4.724;2023-02-28T07:06:10;12.15;;;8.55;;
69738;SDS011;66905;51.012;4.724;2023-02-28T07:08:38;16.83;;;8.82;;
69738;SDS011;66905;51.012;4.724;2023-02-28T07:11:05;11.55;;;7.95;;
69738;SDS011;66905;51.012;4.724;2023-02-28T07:13:34;13.80;;;8.55;;
69738;SDS011;66905;51.012;4.724;2023-02-28T07:16:01;13.85;;;7.50;;
69738;SDS011;66905;51.012;4.724;2023-02-28T07:18:29;11.02;;;7.00;;
69738;SDS011;66905;51.012;4.724;2023-02-28T07:20:55;13.13;;;7.78;;
69738;SDS011;66905;51.012;4.724;2023-02-28T07:23:23;10.40;;;7.15;;
69738;SDS011;66905;51.012;4.724;2023-02-28T07:25:51;12.32;;;7.68;;
69738;SDS011;66905;51.012;4.724;2023-02-28T07:28:19;14.25;;;7.40;;
69738;SDS011;66905;51.012;4.724;2023-02-28T07:30:50;16.58;;;7.75;;
69738;SDS011;66905;51.012;4.724;2023-02-28T07:33:15;12.18;;;6.47;;
69738;SDS011;66905;51.012;4.724;2023-02-28T07:35:43;11.70;;;7.28;;
69738;SDS011;66905;51.012;4.724;2023-02-28T07:38:09;10.25;;;6.55;;
69738;SDS011;66905;51.012;4.724;2023-02-28T07:40:35;10.00;;;6.57;;
69738;SDS011;66905;51.012;4.724;2023-02-28T07:43:04;9.48;;;7.55;;
69738;SDS011;66905;51.012;4.724;2023-02-28T07:45:33;16.57;;;9.30;;
69738;SDS011;66905;51.012;4.724;2023-02-28T07:48:00;11.75;;;6.80;;
69738;SDS011;66905;51.012;4.724;2023-02-28T07:50:26;9.25;;;6.18;;
69738;SDS011;66905;51.012;4.724;2023-02-28T07:52:57;9.68;;;6.65;;
69738;SDS011;66905;51.012;4.724;2023-02-28T07:55:25;9.85;;;6.45;;
69738;SDS011;66905;51.012;4.724;2023-02-28T07:57:51;8.80;;;6.55;;
69738;SDS011;66905;51.012;4.724;2023-02-28T08:00:17;10.52;;;6.45;;
69738;SDS011;66905;51.012;4.724;2023-02-28T08:02:43;8.45;;;5.93;;
69738;SDS011;66905;51.012;4.724;2023-02-28T08:05:11;9.23;;;5.35;;
69738;SDS011;66905;51.012;4.724;2023-02-28T08:07:36;6.65;;;5.50;;
69738;SDS011;66905;51.012;4.724;2023-02-28T08:10:02;6.68;;;5.45;;
69738;SDS011;66905;51.012;4.724;2023-02-28T08:12:30;11.25;;;5.40;;
69738;SDS011;66905;51.012;4.724;2023-02-28T08:14:58;9.65;;;4.60;;
69738;SDS011;66905;51.012;4.724;2023-02-28T08:17:24;9.00;;;5.13;;
69738;SDS011;66905;51.012;4.724;2023-02-28T08:19:50;7.13;;;4.40;;
69738;SDS011;66905;51.012;4.724;2023-02-28T08:22:16;6.82;;;4.07;;
69738;SDS011;66905;51.012;4.724;2023-02-28T08:24:45;5.60;;;4.05;;
69738;SDS011;66905;51.012;4.724;2023-02-28T08:27:14;4.88;;;3.83;;
69738;SDS011;66905;51.012;4.724;2023-02-28T08:29:39;5.97;;;4.28;;
69738;SDS011;66905;51.012;4.724;2023-02-28T08:32:06;7.30;;;4.35;;
69738;SDS011;66905;51.012;4.724;2023-02-28T08:34:32;7.32;;;3.88;;
69738;SDS011;66905;51.012;4.724;2023-02-28T08:36:58;4.43;;;2.95;;
69738;SDS011;66905;51.012;4.724;2023-02-28T08:39:24;4.18;;;3.45;;
69738;SDS011;66905;51.012;4.724;2023-02-28T08:41:52;4.07;;;2.85;;
69738;SDS011;66905;51.012;4.724;2023-02-28T08:44:17;5.22;;;3.58;;
69738;SDS011;66905;51.012;4.724;2023-02-28T08:46:43;4.68;;;3.78;;
69738;SDS011;66905;51.012;4.724;2023-02-28T08:49:09;6.30;;;3.70;;
69738;SDS011;66905;51.012;4.724;2023-02-28T08:51:35;7.45;;;4.00;;
69738;SDS011;66905;51.012;4.724;2023-02-28T08:54:03;11.75;;;6.15;;
69738;SDS011;66905;51.012;4.724;2023-02-28T08:56:29;12.25;;;5.95;;
69738;SDS011;66905;51.012;4.724;2023-02-28T08:58:57;10.68;;;4.25;;
69738;SDS011;66905;51.012;4.724;2023-02-28T09:01:27;5.13;;;3.63;;
69738;SDS011;66905;51.012;4.724;2023-02-28T09:03:57;7.18;;;3.92;;
69738;SDS011;66905;51.012;4.724;2023-02-28T09:06:29;9.45;;;4.82;;
69738;SDS011;66905;51.012;4.724;2023-02-28T09:08:58;5.80;;;3.75;;
69738;SDS011;66905;51.012;4.724;2023-02-28T09:11:24;20.50;;;9.23;;
69738;SDS011;66905;51.012;4.724;2023-02-28T09:13:53;7.30;;;3.53;;
69738;SDS011;66905;51.012;4.724;2023-02-28T09:16:20;11.25;;;4.75;;
69738;SDS011;66905;51.012;4.724;2023-02-28T09:18:46;4.00;;;3.17;;
69738;SDS011;66905;51.012;4.724;2023-02-28T09:21:13;8.80;;;3.90;;
69738;SDS011;66905;51.012;4.724;2023-02-28T09:23:42;4.82;;;2.88;;
69738;SDS011;66905;51.012;4.724;2023-02-28T09:26:17;3.83;;;2.83;;
69738;SDS011;66905;51.012;4.724;2023-02-28T09:28:48;4.95;;;2.97;;
69738;SDS011;66905;51.012;4.724;2023-02-28T09:31:18;5.38;;;4.40;;
69738;SDS011;66905;51.012;4.724;2023-02-28T09:33:49;5.03;;;3.10;;
69738;SDS011;66905;51.012;4.724;2023-02-28T09:36:15;4.05;;;2.70;;
69738;SDS011;66905;51.012;4.724;2023-02-28T09:38:44;3.03;;;2.72;;
69738;SDS011;66905;51.012;4.724;2023-02-28T09:41:13;7.18;;;3.30;;
69738;SDS011;66905;51.012;4.724;2023-02-28T09:43:45;2.25;;;1.83;;
69738;SDS011;66905;51.012;4.724;2023-02-28T09:46:29;3.78;;;3.40;;
69738;SDS011;66905;51.012;4.724;2023-02-28T09:49:18;4.38;;;2.75;;
69738;SDS011;66905;51.012;4.724;2023-02-28T09:54:27;3.10;;;2.65;;
69738;SDS011;66905;51.012;4.724;2023-02-28T10:04:59;3.15;;;1.70;;
69738;SDS011;66905;51.012;4.724;2023-02-28T10:10:30;2.15;;;1.80;;
69738;SDS011;66905;51.012;4.724;2023-02-28T10:13:04;3.13;;;1.97;;
69738;SDS011;66905;51.012;4.724;2023-02-28T10:15:40;5.28;;;2.03;;
69738;SDS011;66905;51.012;4.724;2023-02-28T10:18:10;2.58;;;1.90;;
69738;SDS011;66905;51.012;4.724;2023-02-28T10:20:39;3.08;;;1.75;;
69738;SDS011;66905;51.012;4.724;2023-02-28T10:25:36;2.50;;;1.70;;
69738;SDS011;66905;51.012;4.724;2023-02-28T10:28:13;3.17;;;2.17;;
69738;SDS011;66905;51.012;4.724;2023-02-28T10:30:44;2.83;;;1.80;;
69738;SDS011;66905;51.012;4.724;2023-02-28T10:33:45;1.50;;;1.40;;
69738;SDS011;66905;51.012;4.724;2023-02-28T10:36:04;1.52;;;1.35;;
69738;SDS011;66905;51.012;4.724;2023-02-28T10:41:28;5.18;;;1.40;;
69738;SDS011;66905;51.012;4.724;2023-02-28T10:44:17;2.90;;;1.23;;
69738;SDS011;66905;51.012;4.724;2023-02-28T10:46:48;2.10;;;1.70;;
69738;SDS011;66905;51.012;4.724;2023-02-28T10:52:02;2.08;;;1.55;;
69738;SDS011;66905;51.012;4.724;2023-02-28T10:54:37;5.22;;;1.75;;
69738;SDS011;66905;51.012;4.724;2023-02-28T10:59:35;3.90;;;1.73;;
69738;SDS011;66905;51.012;4.724;2023-02-28T11:02:08;7.93;;;2.10;;
69738;SDS011;66905;51.012;4.724;2023-02-28T11:04:59;2.40;;;1.95;;
69738;SDS011;66905;51.012;4.724;2023-02-28T11:07:25;1.52;;;1.40;;
69738;SDS011;66905;51.012;4.724;2023-02-28T11:09:53;1.67;;;1.48;;
69738;SDS011;66905;51.012;4.724;2023-02-28T11:12:36;2.97;;;1.83;;
69738;SDS011;66905;51.012;4.724;2023-02-28T11:18:00;2.72;;;1.60;;
69738;SDS011;66905;51.012;4.724;2023-02-28T11:20:50;3.28;;;1.55;;
69738;SDS011;66905;51.012;4.724;2023-02-28T11:23:17;4.10;;;1.58;;
69738;SDS011;66905;51.012;4.724;2023-02-28T11:25:49;3.00;;;1.95;;
69738;SDS011;66905;51.012;4.724;2023-02-28T11:28:26;2.08;;;1.88;;
69738;SDS011;66905;51.012;4.724;2023-02-28T11:33:45;2.63;;;1.85;;
69738;SDS011;66905;51.012;4.724;2023-02-28T11:38:40;1.88;;;1.52;;
69738;SDS011;66905;51.012;4.724;2023-02-28T11:41:14;2.15;;;1.80;;
69738;SDS011;66905;51.012;4.724;2023-02-28T11:52:19;1.63;;;1.50;;
69738;SDS011;66905;51.012;4.724;2023-02-28T11:57:46;4.00;;;2.05;;
69738;SDS011;66905;51.012;4.724;2023-02-28T12:05:45;1.75;;;1.40;;
69738;SDS011;66905;51.012;4.724;2023-02-28T12:27:25;3.58;;;1.77;;
69738;SDS011;66905;51.012;4.724;2023-02-28T12:37:31;3.10;;;1.60;;
69738;SDS011;66905;51.012;4.724;2023-02-28T12:40:12;2.00;;;1.80;;
69738;SDS011;66905;51.012;4.724;2023-02-28T12:42:45;3.83;;;1.90;;
69738;SDS011;66905;51.012;4.724;2023-02-28T12:45:20;2.33;;;1.40;;
69738;SDS011;66905;51.012;4.724;2023-02-28T12:48:00;2.00;;;1.80;;
69738;SDS011;66905;51.012;4.724;2023-02-28T12:50:33;2.13;;;1.88;;
69738;SDS011;66905;51.012;4.724;2023-02-28T13:01:21;2.00;;;1.90;;
69738;SDS011;66905;51.012;4.724;2023-02-28T13:09:21;2.65;;;2.10;;
69738;SDS011;66905;51.012;4.724;2023-02-28T13:11:53;2.30;;;1.95;;
69738;SDS011;66905;51.012;4.724;2023-02-28T13:19:39;2.63;;;2.00;;
69738;SDS011;66905;51.012;4.724;2023-02-28T13:24:44;3.15;;;2.38;;
69738;SDS011;66905;51.012;4.724;2023-02-28T13:27:37;3.45;;;2.13;;
69738;SDS011;66905;51.012;4.724;2023-02-28T13:38:41;3.85;;;2.20;;
69738;SDS011;66905;51.012;4.724;2023-02-28T13:46:32;2.60;;;2.08;;
69738;SDS011;66905;51.012;4.724;2023-02-28T13:52:36;4.35;;;2.08;;
69738;SDS011;66905;51.012;4.724;2023-02-28T14:05:43;2.83;;;2.60;;
69738;SDS011;66905;51.012;4.724;2023-02-28T14:10:42;4.78;;;2.47;;
69738;SDS011;66905;51.012;4.724;2023-02-28T14:16:15;4.80;;;2.60;;
69738;SDS011;66905;51.012;4.724;2023-02-28T14:32:22;4.90;;;3.63;;
69738;SDS011;66905;51.012;4.724;2023-02-28T14:34:53;3.20;;;2.03;;
69738;SDS011;66905;51.012;4.724;2023-02-28T14:37:44;2.95;;;2.65;;
69738;SDS011;66905;51.012;4.724;2023-02-28T14:40:32;3.92;;;2.50;;
69738;SDS011;66905;51.012;4.724;2023-02-28T14:43:03;2.50;;;2.30;;
69738;SDS011;66905;51.012;4.724;2023-02-28T14:45:32;3.90;;;2.38;;
69738;SDS011;66905;51.012;4.724;2023-02-28T14:48:02;3.47;;;2.53;;
69738;SDS011;66905;51.012;4.724;2023-02-28T14:50:34;4.55;;;2.65;;
69738;SDS011;66905;51.012;4.724;2023-02-28T14:53:04;5.53;;;2.47;;
69738;SDS011;66905;51.012;4.724;2023-02-28T14:55:43;3.63;;;2.50;;
69738;SDS011;66905;51.012;4.724;2023-02-28T14:58:21;4.00;;;2.30;;
69738;SDS011;66905;51.012;4.724;2023-02-28T15:00:53;4.57;;;2.37;;
69738;SDS011;66905;51.012;4.724;2023-02-28T15:03:30;5.60;;;2.28;;
69738;SDS011;66905;51.012;4.724;2023-02-28T15:05:57;2.55;;;2.35;;
69738;SDS011;66905;51.012;4.724;2023-02-28T15:08:27;4.63;;;2.80;;
69738;SDS011;66905;51.012;4.724;2023-02-28T15:11:27;2.58;;;2.30;;
69738;SDS011;66905;51.012;4.724;2023-02-28T15:13:50;4.45;;;2.28;;
69738;SDS011;66905;51.012;4.724;2023-02-28T15:16:19;5.28;;;2.13;;
69738;SDS011;66905;51.012;4.724;2023-02-28T15:18:57;3.50;;;2.45;;
69738;SDS011;66905;51.012;4.724;2023-02-28T15:21:36;3.15;;;2.53;;
69738;SDS011;66905;51.012;4.724;2023-02-28T15:24:30;4.75;;;2.38;;
69738;SDS011;66905;51.012;4.724;2023-02-28T15:26:56;3.42;;;2.42;;
69738;SDS011;66905;51.012;4.724;2023-02-28T15:29:23;2.60;;;2.40;;
69738;SDS011;66905;51.012;4.724;2023-02-28T15:32:04;5.38;;;2.70;;
69738;SDS011;66905;51.012;4.724;2023-02-28T15:34:42;3.08;;;2.63;;
69738;SDS011;66905;51.012;4.724;2023-02-28T15:37:28;3.60;;;2.22;;
69738;SDS011;66905;51.012;4.724;2023-02-28T15:43:06;4.18;;;2.70;;
69738;SDS011;66905;51.012;4.724;2023-02-28T15:50:48;4.13;;;2.65;;
69738;SDS011;66905;51.012;4.724;2023-02-28T15:53:19;6.13;;;3.50;;
69738;SDS011;66905;51.012;4.724;2023-02-28T15:56:05;3.17;;;2.67;;
69738;SDS011;66905;51.012;4.724;2023-02-28T15:58:41;4.35;;;2.72;;
69738;SDS011;66905;51.012;4.724;2023-02-28T16:01:29;4.75;;;2.80;;
69738;SDS011;66905;51.012;4.724;2023-02-28T16:04:02;6.03;;;3.30;;
69738;SDS011;66905;51.012;4.724;2023-02-28T16:06:39;3.08;;;2.70;;
69738;SDS011;66905;51.012;4.724;2023-02-28T16:09:12;5.22;;;2.90;;
69738;SDS011;66905;51.012;4.724;2023-02-28T16:11:41;6.90;;;2.65;;
69738;SDS011;66905;51.012;4.724;2023-02-28T16:14:16;3.33;;;2.50;;
69738;SDS011;66905;51.012;4.724;2023-02-28T16:16:45;4.82;;;2.88;;
69738;SDS011;66905;51.012;4.724;2023-02-28T16:19:13;4.15;;;2.75;;
69738;SDS011;66905;51.012;4.724;2023-02-28T16:21:41;3.88;;;2.75;;
69738;SDS011;66905;51.012;4.724;2023-02-28T16:24:07;5.10;;;3.10;;
69738;SDS011;66905;51.012;4.724;2023-02-28T16:26:33;5.22;;;2.97;;
69738;SDS011;66905;51.012;4.724;2023-02-28T16:29:00;5.50;;;2.85;;
69738;SDS011;66905;51.012;4.724;2023-02-28T16:31:27;7.38;;;2.88;;
69738;SDS011;66905;51.012;4.724;2023-02-28T16:33:53;5.05;;;2.92;;
69738;SDS011;66905;51.012;4.724;2023-02-28T16:36:22;5.00;;;3.05;;
69738;SDS011;66905;51.012;4.724;2023-02-28T16:38:51;4.82;;;3.08;;
69738;SDS011;66905;51.012;4.724;2023-02-28T16:41:20;6.22;;;3.38;;
69738;SDS011;66905;51.012;4.724;2023-02-28T16:43:50;6.13;;;3.53;;
69738;SDS011;66905;51.012;4.724;2023-02-28T16:46:19;5.90;;;3.40;;
69738;SDS011;66905;51.012;4.724;2023-02-28T16:48:45;6.75;;;3.10;;
69738;SDS011;66905;51.012;4.724;2023-02-28T16:51:16;10.20;;;4.53;;
69738;SDS011;66905;51.012;4.724;2023-02-28T16:53:43;11.90;;;4.68;;
69738;SDS011;66905;51.012;4.724;2023-02-28T16:56:15;12.73;;;4.65;;
69738;SDS011;66905;51.012;4.724;2023-02-28T16:58:43;14.65;;;5.05;;
69738;SDS011;66905;51.012;4.724;2023-02-28T17:01:09;7.60;;;4.03;;
69738;SDS011;66905;51.012;4.724;2023-02-28T17:03:37;12.85;;;3.85;;
69738;SDS011;66905;51.012;4.724;2023-02-28T17:06:05;11.57;;;5.38;;
69738;SDS011;66905;51.012;4.724;2023-02-28T17:08:32;16.45;;;5.97;;
69738;SDS011;66905;51.012;4.724;2023-02-28T17:10:58;15.60;;;5.97;;
69738;SDS011;66905;51.012;4.724;2023-02-28T17:13:24;9.18;;;4.50;;
69738;SDS011;66905;51.012;4.724;2023-02-28T17:15:50;17.20;;;6.20;;
69738;SDS011;66905;51.012;4.724;2023-02-28T17:18:16;11.25;;;5.72;;
69738;SDS011;66905;51.012;4.724;2023-02-28T17:20:44;13.02;;;4.53;;
69738;SDS011;66905;51.012;4.724;2023-02-28T17:23:10;27.77;;;9.32;;
69738;SDS011;66905;51.012;4.724;2023-02-28T17:25:39;23.80;;;8.38;;
69738;SDS011;66905;51.012;4.724;2023-02-28T17:28:04;19.58;;;9.07;;
69738;SDS011;66905;51.012;4.724;2023-02-28T17:30:30;15.35;;;6.60;;
69738;SDS011;66905;51.012;4.724;2023-02-28T17:33:01;26.90;;;8.25;;
69738;SDS011;66905;51.012;4.724;2023-02-28T17:35:27;15.40;;;7.32;;
69738;SDS011;66905;51.012;4.724;2023-02-28T17:37:53;30.02;;;10.27;;
69738;SDS011;66905;51.012;4.724;2023-02-28T17:40:20;36.15;;;10.50;;
69738;SDS011;66905;51.012;4.724;2023-02-28T17:42:47;29.15;;;9.80;;
69738;SDS011;66905;51.012;4.724;2023-02-28T17:45:14;45.17;;;14.60;;
69738;SDS011;66905;51.012;4.724;2023-02-28T17:47:43;27.58;;;9.77;;
69738;SDS011;66905;51.012;4.724;2023-02-28T17:50:15;10.82;;;4.90;;
69738;SDS011;66905;51.012;4.724;2023-02-28T17:52:44;14.38;;;4.95;;
69738;SDS011;66905;51.012;4.724;2023-02-28T17:55:11;6.97;;;3.60;;
69738;SDS011;66905;51.012;4.724;2023-02-28T17:57:37;5.50;;;3.28;;
69738;SDS011;66905;51.012;4.724;2023-02-28T18:00:10;5.03;;;3.85;;
69738;SDS011;66905;51.012;4.724;2023-02-28T18:02:38;5.15;;;3.22;;
69738;SDS011;66905;51.012;4.724;2023-02-28T18:05:11;5.10;;;3.20;;
69738;SDS011;66905;51.012;4.724;2023-02-28T18:07:37;6.95;;;3.10;;
69738;SDS011;66905;51.012;4.724;2023-02-28T18:10:04;8.48;;;3.13;;
69738;SDS011;66905;51.012;4.724;2023-02-28T18:12:31;3.08;;;2.63;;
69738;SDS011;66905;51.012;4.724;2023-02-28T18:14:57;9.93;;;4.88;;
69738;SDS011;66905;51.012;4.724;2023-02-28T18:17:23;4.30;;;2.85;;
69738;SDS011;66905;51.012;4.724;2023-02-28T18:19:49;5.60;;;3.10;;